createdAt,value
2022-09-28T00:00:27.614Z,98721.91
2022-09-28T00:05:31.826Z,98711.53
2022-09-28T00:10:34.513Z,98710.91
2022-09-28T00:15:37.176Z,98724.16
2022-09-28T00:20:39.772Z,98715.16
2022-09-28T00:25:42.364Z,98718.78
2022-09-28T00:30:44.953Z,98713.84
2022-09-28T00:35:47.584Z,98720.38
2022-09-28T00:40:50.332Z,98728.88
2022-09-28T00:46:04.384Z,98728.63
2022-09-28T00:51:10.734Z,98726.75
2022-09-28T00:56:19.145Z,98728.13
2022-09-28T01:01:22.042Z,98723.44
2022-09-28T01:06:28.190Z,98723.81
2022-09-28T01:11:33.216Z,98733.88
2022-09-28T01:16:44.439Z,98729.00
2022-09-28T01:22:07.926Z,98739.19
2022-09-28T01:27:28.154Z,98735.97
2022-09-28T01:32:41.925Z,98748.00
2022-09-28T01:37:52.203Z,98743.97
2022-09-28T01:42:59.412Z,98731.19
2022-09-28T01:48:06.409Z,98744.22
2022-09-28T01:53:15.834Z,98744.44
2022-09-28T01:58:33.128Z,98756.03
2022-09-28T02:03:40.951Z,98754.75
2022-09-28T02:08:51.713Z,98751.50
2022-09-28T02:14:03.133Z,98755.38
2022-09-28T02:19:07.244Z,98755.00
2022-09-28T02:24:20.611Z,98766.22
2022-09-28T02:29:24.460Z,98764.19
2022-09-28T02:34:27.045Z,98755.28
2022-09-28T02:39:29.761Z,98755.69
2022-09-28T02:44:43.524Z,98750.84
2022-09-28T02:50:07.673Z,98764.50
2022-09-28T02:55:18.632Z,98763.94
2022-09-28T03:00:23.142Z,98764.59
2022-09-28T03:05:29.044Z,98771.75
2022-09-28T03:10:49.852Z,98782.97
2022-09-28T03:15:52.469Z,98768.72
2022-09-28T03:20:55.205Z,98773.81
2022-09-28T03:25:57.890Z,98769.31
2022-09-28T03:31:00.511Z,98771.81
2022-09-28T03:36:03.109Z,98772.38
2022-09-28T03:41:05.843Z,98792.09
2022-09-28T03:46:09.158Z,98781.09
2022-09-28T03:51:12.587Z,98797.59
2022-09-28T03:56:15.634Z,98791.69
2022-09-28T04:01:18.502Z,98790.88
2022-09-28T04:06:21.285Z,98786.59
2022-09-28T04:11:24.318Z,98784.31
2022-09-28T04:16:27.406Z,98795.47
2022-09-28T04:21:30.287Z,98792.19
2022-09-28T04:26:32.987Z,98797.25
2022-09-28T04:31:50.245Z,98793.31
2022-09-28T04:36:52.891Z,98781.59
2022-09-28T04:41:55.511Z,98771.16
2022-09-28T04:47:00.689Z,98788.06
2022-09-28T04:52:07.257Z,98788.41
2022-09-28T04:57:10.326Z,98791.06
2022-09-28T05:02:15.350Z,98796.34
2022-09-28T05:07:18.271Z,98800.41
2022-09-28T05:12:21.524Z,98804.75
2022-09-28T05:17:24.162Z,98802.03
2022-09-28T05:22:26.810Z,98805.69
2022-09-28T05:27:29.422Z,98804.06
2022-09-28T05:32:32.100Z,98803.72
2022-09-28T05:37:36.579Z,98800.97
2022-09-28T05:42:39.836Z,98800.22
2022-09-28T05:47:43.618Z,98813.31
2022-09-28T05:52:46.889Z,98801.41
2022-09-28T05:57:49.477Z,98805.19
2022-09-28T06:03:06.747Z,98800.41
2022-09-28T06:08:11.733Z,98795.41
2022-09-28T06:13:14.438Z,98795.31
2022-09-28T06:18:17.123Z,98789.28
2022-09-28T06:23:19.804Z,98797.38
2022-09-28T06:28:22.385Z,98792.38
2022-09-28T06:33:26.696Z,98799.63
2022-09-28T06:38:29.420Z,98805.22
2022-09-28T06:43:34.565Z,98812.84
2022-09-28T06:48:38.291Z,98805.16
2022-09-28T06:53:40.865Z,98813.78
2022-09-28T06:58:43.604Z,98816.69
2022-09-28T07:03:46.826Z,98810.97
2022-09-28T07:08:57.263Z,98820.19
2022-09-28T07:14:25.220Z,98816.28
2022-09-28T07:19:36.532Z,98820.97
2022-09-28T07:24:39.885Z,98811.34
2022-09-28T07:29:42.603Z,98806.56
2022-09-28T07:34:45.251Z,98798.97
2022-09-28T07:40:06.230Z,98788.91
2022-09-28T07:45:09.232Z,98791.47
2022-09-28T07:50:12.219Z,98788.91
2022-09-28T07:55:15.253Z,98785.94
2022-09-28T08:00:17.972Z,98798.56
2022-09-28T08:05:20.701Z,98795.66
2022-09-28T08:10:23.503Z,98799.41
2022-09-28T08:15:26.119Z,98802.78
2022-09-28T08:20:51.320Z,98808.03
2022-09-28T08:25:54.707Z,98798.81
2022-09-28T08:31:01.059Z,98792.06
2022-09-28T08:36:07.000Z,98779.13
2022-09-28T08:41:35.287Z,98762.09
2022-09-28T08:46:46.030Z,98749.88
2022-09-28T08:52:03.372Z,98759.13
2022-09-28T08:57:10.446Z,98762.75
2022-09-28T09:02:22.892Z,98761.28
2022-09-28T09:07:44.715Z,98758.19
2022-09-28T09:12:50.252Z,98756.41
2022-09-28T09:18:37.489Z,98750.50
2022-09-28T09:23:55.214Z,98764.22
2022-09-28T09:29:07.843Z,98764.09
2022-09-28T09:34:34.380Z,98755.72
2022-09-28T09:39:39.612Z,98754.34
2022-09-28T09:45:18.487Z,98751.34
2022-09-28T09:50:30.742Z,98759.47
2022-09-28T09:55:46.477Z,98759.59
2022-09-28T10:00:52.637Z,98768.72
2022-09-28T10:06:03.894Z,98772.94
2022-09-28T10:11:45.567Z,98767.94
2022-09-28T10:16:50.458Z,98768.38
2022-09-28T10:21:53.305Z,98769.69
2022-09-28T10:26:58.948Z,98778.16
2022-09-28T10:32:02.924Z,98769.66
2022-09-28T10:37:09.561Z,98773.97
2022-09-28T10:42:17.945Z,98761.66
2022-09-28T10:47:23.148Z,98762.38
2022-09-28T10:52:42.694Z,98763.41
2022-09-28T10:57:45.322Z,98761.75
2022-09-28T11:02:48.066Z,98760.63
2022-09-28T11:07:52.721Z,98746.97
2022-09-28T11:12:55.815Z,98727.78
2022-09-28T11:18:26.417Z,98729.69
2022-09-28T11:23:31.128Z,98717.28
2022-09-28T11:28:38.336Z,98721.81
2022-09-28T11:33:46.793Z,98730.84
2022-09-28T11:39:09.185Z,98715.69
2022-09-28T11:44:44.606Z,98730.50
2022-09-28T11:49:48.605Z,98716.22
2022-09-28T11:54:56.284Z,98699.09
2022-09-28T12:00:03.211Z,98685.41
2022-09-28T12:05:20.652Z,98686.81
2022-09-28T12:10:56.827Z,98681.16
2022-09-28T12:21:36.928Z,98670.63
2022-09-28T12:26:46.606Z,98666.50
2022-09-28T12:32:13.014Z,98657.19
2022-09-28T12:37:24.329Z,98658.25
2022-09-28T12:42:57.296Z,98659.31
2022-09-28T12:48:36.257Z,98653.97
2022-09-28T12:53:57.717Z,98661.56
2022-09-28T12:59:01.151Z,98665.91
2022-09-28T13:04:45.145Z,98657.09
2022-09-28T13:09:55.566Z,98661.34
2022-09-28T13:15:21.810Z,98664.72
2022-09-28T13:20:42.889Z,98660.19
2022-09-28T13:25:57.065Z,98659.63
2022-09-28T13:31:00.767Z,98657.56
2022-09-28T13:36:24.716Z,98660.13
2022-09-28T13:41:38.033Z,98652.91
2022-09-28T13:47:25.704Z,98652.91
2022-09-28T13:52:57.289Z,98638.41
2022-09-28T13:58:24.535Z,98647.94
2022-09-28T14:03:45.315Z,98639.41
2022-09-28T14:09:14.101Z,98645.25
2022-09-28T14:14:16.786Z,98645.94
2022-09-28T14:19:20.747Z,98634.97
2022-09-28T14:25:01.371Z,98648.00
2022-09-28T14:30:07.954Z,98645.72
2022-09-28T14:35:18.929Z,98643.91
2022-09-28T14:41:10.190Z,98629.75
2022-09-28T14:46:14.722Z,98633.25
2022-09-28T14:51:37.955Z,98629.44
2022-09-28T14:57:08.215Z,98625.59
2022-09-28T15:02:10.806Z,98613.75
2022-09-28T15:07:47.940Z,98621.19
2022-09-28T15:12:53.453Z,98620.03
2022-09-28T15:18:16.733Z,98625.06
2022-09-28T15:23:34.721Z,98611.34
2022-09-28T15:28:44.929Z,98613.19
2022-09-28T15:34:06.538Z,98609.22
2022-09-28T15:39:18.742Z,98612.97
2022-09-28T15:44:34.289Z,98621.47
2022-09-28T15:49:46.059Z,98619.75
2022-09-28T15:54:49.096Z,98622.31
2022-09-28T15:59:56.954Z,98621.38
2022-09-28T16:05:05.626Z,98614.06
2022-09-28T16:10:11.580Z,98619.78
2022-09-28T16:15:27.406Z,98621.78
2022-09-28T16:20:34.231Z,98625.59
2022-09-28T16:25:39.449Z,98627.81
2022-09-28T16:30:59.612Z,98623.41
2022-09-28T16:36:03.341Z,98624.56
2022-09-28T16:41:09.155Z,98626.31
2022-09-28T16:46:15.734Z,98636.38
2022-09-28T16:51:20.656Z,98636.22
2022-09-28T16:56:23.308Z,98634.28
2022-09-28T17:01:26.070Z,98634.47
2022-09-28T17:06:28.874Z,98632.72
2022-09-28T17:11:31.498Z,98640.16
2022-09-28T17:17:07.794Z,98636.31
2022-09-28T17:21:58.780Z,98629.34
2022-09-28T17:27:03.258Z,98633.88
2022-09-28T17:32:16.977Z,98627.38
2022-09-28T17:37:19.690Z,98632.13
2022-09-28T17:42:22.574Z,98640.97
2022-09-28T17:47:25.169Z,98642.59
2022-09-28T17:52:27.869Z,98638.28
2022-09-28T17:57:30.545Z,98643.88
2022-09-28T18:02:33.829Z,98648.84
2022-09-28T18:07:38.222Z,98662.09
2022-09-28T18:12:41.267Z,98657.28
2022-09-28T18:17:44.301Z,98662.81
2022-09-28T18:22:47.057Z,98661.16
2022-09-28T18:27:49.755Z,98673.00
2022-09-28T18:32:52.700Z,98670.75
2022-09-28T18:37:55.579Z,98671.72
2022-09-28T18:42:58.410Z,98676.13
2022-09-28T18:48:01.372Z,98682.19
2022-09-28T18:53:13.254Z,98687.78
2022-09-28T18:58:15.963Z,98693.84
2022-09-28T19:03:18.926Z,98689.84
2022-09-28T19:08:25.513Z,98698.13
2022-09-28T19:13:30.275Z,98693.03
2022-09-28T19:18:33.943Z,98698.66
2022-09-28T19:23:37.151Z,98694.19
2022-09-28T19:28:40.023Z,98692.19
2022-09-28T19:33:42.713Z,98687.50
2022-09-28T19:38:45.703Z,98686.91
2022-09-28T19:43:48.461Z,98692.44
2022-09-28T19:48:51.128Z,98686.72
2022-09-28T19:53:53.680Z,98684.06
2022-09-28T19:58:57.064Z,98685.31
2022-09-28T20:04:00.381Z,98681.22
2022-09-28T20:09:03.552Z,98689.44
2022-09-28T20:14:10.631Z,98687.00
2022-09-28T20:19:13.523Z,98680.03
2022-09-28T20:24:17.266Z,98676.75
2022-09-28T20:29:20.422Z,98681.50
2022-09-28T20:34:23.020Z,98673.50
2022-09-28T20:39:25.686Z,98675.56
2022-09-28T20:44:28.413Z,98677.22
2022-09-28T20:49:32.061Z,98676.41
2022-09-28T20:54:34.641Z,98673.91
2022-09-28T20:59:37.440Z,98647.50
2022-09-28T21:04:41.377Z,98651.22
2022-09-28T21:09:43.953Z,98657.19
2022-09-28T21:14:46.800Z,98658.00
2022-09-28T21:19:50.018Z,98650.66
2022-09-28T21:24:52.608Z,98641.66
2022-09-28T21:29:55.195Z,98642.69
2022-09-28T21:34:58.344Z,98636.75
2022-09-28T21:40:02.548Z,98642.50
2022-09-28T21:45:05.661Z,98648.03
2022-09-28T21:50:08.710Z,98648.69
2022-09-28T21:55:11.344Z,98647.03
2022-09-28T22:00:16.425Z,98649.31
2022-09-28T22:05:19.293Z,98642.56
2022-09-28T22:10:21.934Z,98644.63
2022-09-28T22:15:24.586Z,98637.09
2022-09-28T22:20:27.648Z,98645.91
2022-09-28T22:25:30.274Z,98640.34
2022-09-28T22:30:34.488Z,98635.44
2022-09-28T22:35:37.079Z,98643.84
2022-09-28T22:40:47.184Z,98642.44
2022-09-28T22:45:50.369Z,98637.28
2022-09-28T22:50:53.099Z,98631.59
2022-09-28T22:55:56.720Z,98637.13
2022-09-28T23:01:29.795Z,98631.66
2022-09-28T23:06:33.236Z,98630.78
2022-09-28T23:11:35.825Z,98633.25
2022-09-28T23:16:38.373Z,98637.97
2022-09-28T23:21:41.502Z,98632.88
2022-09-28T23:26:44.127Z,98637.16
2022-09-28T23:31:46.785Z,98624.88
2022-09-28T23:36:52.044Z,98624.28
2022-09-28T23:41:54.612Z,98622.84
2022-09-28T23:46:57.906Z,98624.91
2022-09-28T23:52:01.180Z,98624.31
2022-09-28T23:57:03.812Z,98630.03
